sensor_id;sensor_type;location;lat;lon;timestamp;P1;durP1;ratioP1;P2;durP2;ratioP2
72864;SDS011;61000;48.120;11.548;2023-07-13T00:01:44;5.80;;;4.18;;
72864;SDS011;61000;48.120;11.548;2023-07-13T00:04:13;6.18;;;4.75;;
72864;SDS011;61000;48.120;11.548;2023-07-13T00:06:40;5.28;;;4.20;;
72864;SDS011;61000;48.120;11.548;2023-07-13T00:09:10;5.00;;;3.97;;
72864;SDS011;61000;48.120;11.548;2023-07-13T00:11:37;6.28;;;4.10;;
72864;SDS011;61000;48.120;11.548;2023-07-13T00:14:04;5.68;;;3.72;;
72864;SDS011;61000;48.120;11.548;2023-07-13T00:16:32;4.10;;;3.70;;
72864;SDS011;61000;48.120;11.548;2023-07-13T00:19:00;6.07;;;4.28;;
72864;SDS011;61000;48.120;11.548;2023-07-13T00:21:28;5.57;;;4.38;;
72864;SDS011;61000;48.120;11.548;2023-07-13T00:23:55;10.25;;;6.75;;
72864;SDS011;61000;48.120;11.548;2023-07-13T00:26:23;6.05;;;4.78;;
72864;SDS011;61000;48.120;11.548;2023-07-13T00:28:50;6.10;;;4.40;;
72864;SDS011;61000;48.120;11.548;2023-07-13T00:31:16;4.03;;;3.55;;
72864;SDS011;61000;48.120;11.548;2023-07-13T00:33:44;8.30;;;4.68;;
72864;SDS011;61000;48.120;11.548;2023-07-13T00:36:11;5.60;;;3.88;;
72864;SDS011;61000;48.120;11.548;2023-07-13T00:38:39;6.18;;;4.30;;
72864;SDS011;61000;48.120;11.548;2023-07-13T00:41:07;4.97;;;3.75;;
72864;SDS011;61000;48.120;11.548;2023-07-13T00:43:34;4.60;;;3.75;;
72864;SDS011;61000;48.120;11.548;2023-07-13T00:46:19;7.32;;;3.78;;
72864;SDS011;61000;48.120;11.548;2023-07-13T00:48:49;4.35;;;3.20;;
72864;SDS011;61000;48.120;11.548;2023-07-13T00:51:17;4.22;;;3.33;;
72864;SDS011;61000;48.120;11.548;2023-07-13T00:53:50;3.33;;;3.03;;
72864;SDS011;61000;48.120;11.548;2023-07-13T00:56:19;3.85;;;3.40;;
72864;SDS011;61000;48.120;11.548;2023-07-13T00:58:46;3.40;;;3.10;;
72864;SDS011;61000;48.120;11.548;2023-07-13T01:01:13;3.85;;;3.45;;
72864;SDS011;61000;48.120;11.548;2023-07-13T01:03:40;7.75;;;3.55;;
72864;SDS011;61000;48.120;11.548;2023-07-13T01:06:08;3.80;;;3.20;;
72864;SDS011;61000;48.120;11.548;2023-07-13T01:08:35;3.40;;;2.92;;
72864;SDS011;61000;48.120;11.548;2023-07-13T01:11:03;3.30;;;3.00;;
72864;SDS011;61000;48.120;11.548;2023-07-13T01:13:30;3.35;;;3.05;;
72864;SDS011;61000;48.120;11.548;2023-07-13T01:15:58;4.82;;;2.88;;
72864;SDS011;61000;48.120;11.548;2023-07-13T01:18:29;3.45;;;2.95;;
72864;SDS011;61000;48.120;11.548;2023-07-13T01:20:57;4.78;;;2.97;;
72864;SDS011;61000;48.120;11.548;2023-07-13T01:23:25;3.70;;;2.55;;
72864;SDS011;61000;48.120;11.548;2023-07-13T01:25:54;4.22;;;2.80;;
72864;SDS011;61000;48.120;11.548;2023-07-13T01:28:22;4.45;;;2.83;;
72864;SDS011;61000;48.120;11.548;2023-07-13T01:30:52;4.75;;;2.90;;
72864;SDS011;61000;48.120;11.548;2023-07-13T01:33:21;3.22;;;2.92;;
72864;SDS011;61000;48.120;11.548;2023-07-13T01:35:49;5.07;;;3.30;;
72864;SDS011;61000;48.120;11.548;2023-07-13T01:38:19;3.30;;;3.00;;
72864;SDS011;61000;48.120;11.548;2023-07-13T01:40:47;5.50;;;2.90;;
72864;SDS011;61000;48.120;11.548;2023-07-13T01:43:14;3.65;;;3.10;;
72864;SDS011;61000;48.120;11.548;2023-07-13T01:45:43;3.42;;;2.92;;
72864;SDS011;61000;48.120;11.548;2023-07-13T01:48:11;4.25;;;2.65;;
72864;SDS011;61000;48.120;11.548;2023-07-13T01:50:39;5.75;;;3.33;;
72864;SDS011;61000;48.120;11.548;2023-07-13T01:53:06;4.72;;;3.20;;
72864;SDS011;61000;48.120;11.548;2023-07-13T01:55:35;3.88;;;3.20;;
72864;SDS011;61000;48.120;11.548;2023-07-13T01:58:02;4.72;;;3.00;;
72864;SDS011;61000;48.120;11.548;2023-07-13T02:00:30;6.22;;;3.85;;
72864;SDS011;61000;48.120;11.548;2023-07-13T02:02:58;5.70;;;3.35;;
72864;SDS011;61000;48.120;11.548;2023-07-13T02:05:25;7.82;;;4.85;;
72864;SDS011;61000;48.120;11.548;2023-07-13T02:07:51;12.27;;;4.57;;
72864;SDS011;61000;48.120;11.548;2023-07-13T02:10:19;6.10;;;4.63;;
72864;SDS011;61000;48.120;11.548;2023-07-13T02:12:48;4.47;;;3.95;;
72864;SDS011;61000;48.120;11.548;2023-07-13T02:15:15;5.03;;;3.90;;
72864;SDS011;61000;48.120;11.548;2023-07-13T02:17:43;5.55;;;3.92;;
72864;SDS011;61000;48.120;11.548;2023-07-13T02:20:10;4.18;;;3.40;;
72864;SDS011;61000;48.120;11.548;2023-07-13T02:22:37;6.32;;;4.05;;
72864;SDS011;61000;48.120;11.548;2023-07-13T02:25:04;4.75;;;4.10;;
72864;SDS011;61000;48.120;11.548;2023-07-13T02:27:31;4.55;;;3.75;;
72864;SDS011;61000;48.120;11.548;2023-07-13T02:29:59;5.88;;;3.85;;
72864;SDS011;61000;48.120;11.548;2023-07-13T02:32:26;11.25;;;5.90;;
72864;SDS011;61000;48.120;11.548;2023-07-13T02:34:53;5.05;;;3.97;;
72864;SDS011;61000;48.120;11.548;2023-07-13T02:37:21;4.20;;;3.28;;
72864;SDS011;61000;48.120;11.548;2023-07-13T02:39:48;5.07;;;3.70;;
72864;SDS011;61000;48.120;11.548;2023-07-13T02:42:14;5.40;;;3.92;;
72864;SDS011;61000;48.120;11.548;2023-07-13T02:44:43;7.57;;;3.88;;
72864;SDS011;61000;48.120;11.548;2023-07-13T02:47:11;5.05;;;4.07;;
72864;SDS011;61000;48.120;11.548;2023-07-13T02:49:39;8.63;;;3.90;;
72864;SDS011;61000;48.120;11.548;2023-07-13T02:52:05;9.45;;;4.93;;
72864;SDS011;61000;48.120;11.548;2023-07-13T02:54:32;7.72;;;4.82;;
72864;SDS011;61000;48.120;11.548;2023-07-13T02:56:59;7.28;;;5.03;;
72864;SDS011;61000;48.120;11.548;2023-07-13T02:59:26;8.73;;;5.50;;
72864;SDS011;61000;48.120;11.548;2023-07-13T03:01:53;6.75;;;4.93;;
72864;SDS011;61000;48.120;11.548;2023-07-13T03:04:22;6.65;;;5.10;;
72864;SDS011;61000;48.120;11.548;2023-07-13T03:06:48;6.10;;;5.45;;
72864;SDS011;61000;48.120;11.548;2023-07-13T03:09:16;14.63;;;5.63;;
72864;SDS011;61000;48.120;11.548;2023-07-13T03:11:48;10.73;;;4.90;;
72864;SDS011;61000;48.120;11.548;2023-07-13T03:14:23;7.05;;;4.60;;
72864;SDS011;61000;48.120;11.548;2023-07-13T03:16:50;5.63;;;4.40;;
72864;SDS011;61000;48.120;11.548;2023-07-13T03:19:19;5.50;;;4.43;;
72864;SDS011;61000;48.120;11.548;2023-07-13T03:21:50;8.88;;;4.00;;
72864;SDS011;61000;48.120;11.548;2023-07-13T03:24:17;4.95;;;3.90;;
72864;SDS011;61000;48.120;11.548;2023-07-13T03:26:44;7.47;;;4.60;;
72864;SDS011;61000;48.120;11.548;2023-07-13T03:29:10;4.13;;;3.72;;
72864;SDS011;61000;48.120;11.548;2023-07-13T03:31:38;6.22;;;3.90;;
72864;SDS011;61000;48.120;11.548;2023-07-13T03:34:04;10.05;;;3.88;;
72864;SDS011;61000;48.120;11.548;2023-07-13T03:36:33;8.40;;;3.72;;
72864;SDS011;61000;48.120;11.548;2023-07-13T03:39:04;5.72;;;3.75;;
72864;SDS011;61000;48.120;11.548;2023-07-13T03:41:46;6.10;;;4.10;;
72864;SDS011;61000;48.120;11.548;2023-07-13T03:44:13;4.70;;;4.00;;
72864;SDS011;61000;48.120;11.548;2023-07-13T03:46:42;6.63;;;4.32;;
72864;SDS011;61000;48.120;11.548;2023-07-13T03:49:09;9.77;;;4.90;;
72864;SDS011;61000;48.120;11.548;2023-07-13T03:51:38;7.22;;;4.88;;
72864;SDS011;61000;48.120;11.548;2023-07-13T03:54:05;4.88;;;4.15;;
72864;SDS011;61000;48.120;11.548;2023-07-13T03:56:32;7.32;;;4.60;;
72864;SDS011;61000;48.120;11.548;2023-07-13T03:59:00;7.55;;;4.38;;
72864;SDS011;61000;48.120;11.548;2023-07-13T04:01:29;5.22;;;4.22;;
72864;SDS011;61000;48.120;11.548;2023-07-13T04:03:55;5.55;;;4.47;;
72864;SDS011;61000;48.120;11.548;2023-07-13T04:06:25;9.07;;;5.07;;
72864;SDS011;61000;48.120;11.548;2023-07-13T04:08:56;5.18;;;4.05;;
72864;SDS011;61000;48.120;11.548;2023-07-13T04:11:25;6.40;;;4.75;;
72864;SDS011;61000;48.120;11.548;2023-07-13T04:13:53;6.13;;;4.50;;
72864;SDS011;61000;48.120;11.548;2023-07-13T04:16:20;7.88;;;4.30;;
72864;SDS011;61000;48.120;11.548;2023-07-13T04:18:48;6.15;;;5.07;;
72864;SDS011;61000;48.120;11.548;2023-07-13T04:21:16;4.88;;;4.38;;
72864;SDS011;61000;48.120;11.548;2023-07-13T04:23:43;5.50;;;3.97;;
72864;SDS011;61000;48.120;11.548;2023-07-13T04:26:11;5.35;;;3.95;;
72864;SDS011;61000;48.120;11.548;2023-07-13T04:28:38;4.63;;;4.15;;
72864;SDS011;61000;48.120;11.548;2023-07-13T04:31:05;5.80;;;3.90;;
72864;SDS011;61000;48.120;11.548;2023-07-13T04:33:32;7.72;;;4.13;;
72864;SDS011;61000;48.120;11.548;2023-07-13T04:35:59;6.88;;;4.40;;
72864;SDS011;61000;48.120;11.548;2023-07-13T04:38:27;6.55;;;4.35;;
72864;SDS011;61000;48.120;11.548;2023-07-13T04:40:56;7.03;;;5.25;;
72864;SDS011;61000;48.120;11.548;2023-07-13T04:43:26;5.55;;;4.13;;
72864;SDS011;61000;48.120;11.548;2023-07-13T04:45:54;5.95;;;3.75;;
72864;SDS011;61000;48.120;11.548;2023-07-13T04:48:21;6.03;;;3.25;;
72864;SDS011;61000;48.120;11.548;2023-07-13T04:50:53;4.45;;;3.50;;
72864;SDS011;61000;48.120;11.548;2023-07-13T04:53:22;5.82;;;4.22;;
72864;SDS011;61000;48.120;11.548;2023-07-13T04:55:49;6.00;;;4.50;;
72864;SDS011;61000;48.120;11.548;2023-07-13T04:58:16;5.30;;;3.70;;
72864;SDS011;61000;48.120;11.548;2023-07-13T05:00:45;4.55;;;3.65;;
72864;SDS011;61000;48.120;11.548;2023-07-13T05:03:12;5.43;;;3.30;;
72864;SDS011;61000;48.120;11.548;2023-07-13T05:05:38;4.53;;;3.90;;
72864;SDS011;61000;48.120;11.548;2023-07-13T05:08:05;6.20;;;4.15;;
72864;SDS011;61000;48.120;11.548;2023-07-13T05:10:33;7.22;;;4.00;;
72864;SDS011;61000;48.120;11.548;2023-07-13T05:13:00;6.35;;;3.50;;
72864;SDS011;61000;48.120;11.548;2023-07-13T05:15:28;6.85;;;3.72;;
72864;SDS011;61000;48.120;11.548;2023-07-13T05:17:56;3.60;;;3.20;;
72864;SDS011;61000;48.120;11.548;2023-07-13T05:20:23;3.72;;;3.40;;
72864;SDS011;61000;48.120;11.548;2023-07-13T05:22:50;5.90;;;4.47;;
72864;SDS011;61000;48.120;11.548;2023-07-13T05:25:17;7.40;;;3.50;;
72864;SDS011;61000;48.120;11.548;2023-07-13T05:27:44;5.07;;;3.80;;
72864;SDS011;61000;48.120;11.548;2023-07-13T05:30:12;4.72;;;3.60;;
72864;SDS011;61000;48.120;11.548;2023-07-13T05:32:39;5.47;;;3.65;;
72864;SDS011;61000;48.120;11.548;2023-07-13T05:35:08;4.13;;;3.72;;
72864;SDS011;61000;48.120;11.548;2023-07-13T05:37:36;6.07;;;3.80;;
72864;SDS011;61000;48.120;11.548;2023-07-13T05:40:06;6.60;;;3.63;;
72864;SDS011;61000;48.120;11.548;2023-07-13T05:42:33;4.38;;;3.97;;
72864;SDS011;61000;48.120;11.548;2023-07-13T05:45:01;7.43;;;3.97;;
72864;SDS011;61000;48.120;11.548;2023-07-13T05:47:28;6.28;;;4.18;;
72864;SDS011;61000;48.120;11.548;2023-07-13T05:49:55;5.72;;;3.55;;
72864;SDS011;61000;48.120;11.548;2023-07-13T05:52:23;9.20;;;3.70;;
72864;SDS011;61000;48.120;11.548;2023-07-13T05:54:50;5.53;;;3.40;;
72864;SDS011;61000;48.120;11.548;2023-07-13T05:57:17;5.88;;;3.42;;
72864;SDS011;61000;48.120;11.548;2023-07-13T05:59:44;7.80;;;3.47;;
72864;SDS011;61000;48.120;11.548;2023-07-13T06:02:14;6.22;;;3.85;;
72864;SDS011;61000;48.120;11.548;2023-07-13T06:04:41;5.60;;;3.72;;
72864;SDS011;61000;48.120;11.548;2023-07-13T06:07:08;5.05;;;3.53;;
72864;SDS011;61000;48.120;11.548;2023-07-13T06:09:36;5.82;;;3.63;;
72864;SDS011;61000;48.120;11.548;2023-07-13T06:12:04;5.25;;;3.60;;
72864;SDS011;61000;48.120;11.548;2023-07-13T06:14:31;3.35;;;3.00;;
72864;SDS011;61000;48.120;11.548;2023-07-13T06:16:58;8.50;;;3.85;;
72864;SDS011;61000;48.120;11.548;2023-07-13T06:19:25;4.90;;;3.70;;
72864;SDS011;61000;48.120;11.548;2023-07-13T06:21:52;6.47;;;3.83;;
72864;SDS011;61000;48.120;11.548;2023-07-13T06:24:19;8.18;;;3.70;;
72864;SDS011;61000;48.120;11.548;2023-07-13T06:26:47;6.28;;;3.83;;
72864;SDS011;61000;48.120;11.548;2023-07-13T06:29:14;9.90;;;3.65;;
72864;SDS011;61000;48.120;11.548;2023-07-13T06:31:41;9.32;;;4.28;;
72864;SDS011;61000;48.120;11.548;2023-07-13T06:34:07;3.10;;;2.80;;
72864;SDS011;61000;48.120;11.548;2023-07-13T06:36:34;3.92;;;3.22;;
72864;SDS011;61000;48.120;11.548;2023-07-13T06:39:03;4.25;;;2.75;;
72864;SDS011;61000;48.120;11.548;2023-07-13T06:41:34;5.60;;;2.97;;
72864;SDS011;61000;48.120;11.548;2023-07-13T06:44:07;7.55;;;3.17;;
72864;SDS011;61000;48.120;11.548;2023-07-13T06:46:34;4.60;;;3.42;;
72864;SDS011;61000;48.120;11.548;2023-07-13T06:49:01;7.20;;;3.58;;
72864;SDS011;61000;48.120;11.548;2023-07-13T06:51:28;4.97;;;3.10;;
72864;SDS011;61000;48.120;11.548;2023-07-13T06:53:57;10.35;;;3.88;;
72864;SDS011;61000;48.120;11.548;2023-07-13T06:56:24;4.68;;;3.05;;
72864;SDS011;61000;48.120;11.548;2023-07-13T06:58:51;6.00;;;3.25;;
72864;SDS011;61000;48.120;11.548;2023-07-13T07:01:19;3.47;;;2.88;;
72864;SDS011;61000;48.120;11.548;2023-07-13T07:03:46;6.35;;;2.97;;
72864;SDS011;61000;48.120;11.548;2023-07-13T07:06:18;4.07;;;2.78;;
72864;SDS011;61000;48.120;11.548;2023-07-13T07:08:46;4.88;;;2.70;;
72864;SDS011;61000;48.120;11.548;2023-07-13T07:11:14;6.90;;;2.40;;
72864;SDS011;61000;48.120;11.548;2023-07-13T07:13:43;7.47;;;2.83;;
72864;SDS011;61000;48.120;11.548;2023-07-13T07:16:10;3.03;;;2.00;;
72864;SDS011;61000;48.120;11.548;2023-07-13T07:18:38;6.20;;;2.60;;
72864;SDS011;61000;48.120;11.548;2023-07-13T07:21:05;5.05;;;2.70;;
72864;SDS011;61000;48.120;11.548;2023-07-13T07:23:32;4.10;;;2.88;;
72864;SDS011;61000;48.120;11.548;2023-07-13T07:25:59;9.07;;;2.83;;
72864;SDS011;61000;48.120;11.548;2023-07-13T07:28:26;3.78;;;2.70;;
72864;SDS011;61000;48.120;11.548;2023-07-13T07:30:54;3.63;;;2.80;;
72864;SDS011;61000;48.120;11.548;2023-07-13T07:33:22;5.47;;;2.80;;
72864;SDS011;61000;48.120;11.548;2023-07-13T07:35:51;6.20;;;2.55;;
72864;SDS011;61000;48.120;11.548;2023-07-13T07:38:18;4.25;;;2.88;;
72864;SDS011;61000;48.120;11.548;2023-07-13T07:40:45;5.22;;;3.05;;
72864;SDS011;61000;48.120;11.548;2023-07-13T07:43:16;4.85;;;3.47;;
72864;SDS011;61000;48.120;11.548;2023-07-13T07:45:43;4.47;;;2.65;;
72864;SDS011;61000;48.120;11.548;2023-07-13T07:48:11;4.00;;;2.65;;
72864;SDS011;61000;48.120;11.548;2023-07-13T07:50:38;6.60;;;3.00;;
72864;SDS011;61000;48.120;11.548;2023-07-13T07:53:06;6.80;;;3.15;;
72864;SDS011;61000;48.120;11.548;2023-07-13T07:55:35;6.10;;;3.55;;
72864;SDS011;61000;48.120;11.548;2023-07-13T07:58:02;3.50;;;2.70;;
72864;SDS011;61000;48.120;11.548;2023-07-13T08:00:29;6.93;;;2.65;;
72864;SDS011;61000;48.120;11.548;2023-07-13T08:02:57;4.20;;;2.80;;
72864;SDS011;61000;48.120;11.548;2023-07-13T08:05:25;4.57;;;2.80;;
72864;SDS011;61000;48.120;11.548;2023-07-13T08:07:52;3.30;;;2.70;;
72864;SDS011;61000;48.120;11.548;2023-07-13T08:10:20;7.55;;;3.33;;
72864;SDS011;61000;48.120;11.548;2023-07-13T08:12:47;3.92;;;3.00;;
72864;SDS011;61000;48.120;11.548;2023-07-13T08:15:15;5.18;;;3.20;;
72864;SDS011;61000;48.120;11.548;2023-07-13T08:17:45;4.97;;;2.90;;
72864;SDS011;61000;48.120;11.548;2023-07-13T08:20:13;5.35;;;2.70;;
72864;SDS011;61000;48.120;11.548;2023-07-13T08:22:40;4.70;;;2.60;;
72864;SDS011;61000;48.120;11.548;2023-07-13T08:25:07;4.50;;;2.90;;
72864;SDS011;61000;48.120;11.548;2023-07-13T08:27:35;5.60;;;2.67;;
72864;SDS011;61000;48.120;11.548;2023-07-13T08:30:03;5.40;;;2.83;;
72864;SDS011;61000;48.120;11.548;2023-07-13T08:32:30;12.43;;;2.92;;
72864;SDS011;61000;48.120;11.548;2023-07-13T08:34:57;4.78;;;3.10;;
72864;SDS011;61000;48.120;11.548;2023-07-13T08:37:24;5.53;;;2.97;;
72864;SDS011;61000;48.120;11.548;2023-07-13T08:39:51;7.50;;;3.55;;
72864;SDS011;61000;48.120;11.548;2023-07-13T08:42:22;7.40;;;3.08;;
72864;SDS011;61000;48.120;11.548;2023-07-13T08:45:02;4.32;;;2.97;;
72864;SDS011;61000;48.120;11.548;2023-07-13T08:47:37;3.78;;;2.85;;
72864;SDS011;61000;48.120;11.548;2023-07-13T08:50:09;9.18;;;3.10;;
72864;SDS011;61000;48.120;11.548;2023-07-13T08:52:40;6.53;;;3.10;;
72864;SDS011;61000;48.120;11.548;2023-07-13T08:55:11;5.93;;;4.15;;
72864;SDS011;61000;48.120;11.548;2023-07-13T08:57:41;16.15;;;5.28;;
72864;SDS011;61000;48.120;11.548;2023-07-13T09:00:12;5.15;;;3.13;;
72864;SDS011;61000;48.120;11.548;2023-07-13T09:02:42;4.43;;;3.08;;
72864;SDS011;61000;48.120;11.548;2023-07-13T09:05:14;4.03;;;3.20;;
72864;SDS011;61000;48.120;11.548;2023-07-13T09:08:00;4.88;;;2.75;;
72864;SDS011;61000;48.120;11.548;2023-07-13T09:10:37;5.00;;;2.70;;
72864;SDS011;61000;48.120;11.548;2023-07-13T09:13:14;8.75;;;2.75;;
72864;SDS011;61000;48.120;11.548;2023-07-13T09:15:54;5.82;;;2.45;;
72864;SDS011;61000;48.120;11.548;2023-07-13T09:18:22;4.60;;;2.92;;
72864;SDS011;61000;48.120;11.548;2023-07-13T09:20:55;7.75;;;2.90;;
72864;SDS011;61000;48.120;11.548;2023-07-13T09:23:27;4.30;;;2.53;;
72864;SDS011;61000;48.120;11.548;2023-07-13T09:25:58;6.25;;;2.47;;
72864;SDS011;61000;48.120;11.548;2023-07-13T09:28:29;2.03;;;1.67;;
72864;SDS011;61000;48.120;11.548;2023-07-13T09:31:03;5.63;;;2.53;;
72864;SDS011;61000;48.120;11.548;2023-07-13T09:33:32;3.72;;;2.13;;
72864;SDS011;61000;48.120;11.548;2023-07-13T09:36:00;5.28;;;2.05;;
72864;SDS011;61000;48.120;11.548;2023-07-13T09:38:42;4.60;;;2.42;;
72864;SDS011;61000;48.120;11.548;2023-07-13T09:41:15;4.68;;;2.30;;
72864;SDS011;61000;48.120;11.548;2023-07-13T09:44:06;4.28;;;2.40;;
72864;SDS011;61000;48.120;11.548;2023-07-13T09:46:38;6.80;;;2.53;;
72864;SDS011;61000;48.120;11.548;2023-07-13T09:49:09;3.22;;;2.70;;
72864;SDS011;61000;48.120;11.548;2023-07-13T09:51:36;5.70;;;2.90;;
72864;SDS011;61000;48.120;11.548;2023-07-13T09:54:04;7.25;;;1.70;;
72864;SDS011;61000;48.120;11.548;2023-07-13T09:56:36;7.57;;;2.22;;
72864;SDS011;61000;48.120;11.548;2023-07-13T09:59:03;4.88;;;2.70;;
72864;SDS011;61000;48.120;11.548;2023-07-13T10:01:31;6.05;;;3.00;;
72864;SDS011;61000;48.120;11.548;2023-07-13T10:04:01;8.93;;;3.00;;
72864;SDS011;61000;48.120;11.548;2023-07-13T10:06:28;6.55;;;2.80;;
72864;SDS011;61000;48.120;11.548;2023-07-13T10:08:56;3.83;;;2.65;;
72864;SDS011;61000;48.120;11.548;2023-07-13T10:11:24;2.50;;;2.03;;
72864;SDS011;61000;48.120;11.548;2023-07-13T10:13:55;4.32;;;2.08;;
72864;SDS011;61000;48.120;11.548;2023-07-13T10:16:25;6.57;;;2.85;;
72864;SDS011;61000;48.120;11.548;2023-07-13T10:18:58;5.60;;;2.10;;
72864;SDS011;61000;48.120;11.548;2023-07-13T10:21:30;6.93;;;2.00;;
72864;SDS011;61000;48.120;11.548;2023-07-13T10:24:03;8.90;;;2.83;;
72864;SDS011;61000;48.120;11.548;2023-07-13T10:26:33;3.72;;;1.90;;
72864;SDS011;61000;48.120;11.548;2023-07-13T10:29:02;4.07;;;1.80;;
72864;SDS011;61000;48.120;11.548;2023-07-13T10:31:33;1.67;;;1.20;;
72864;SDS011;61000;48.120;11.548;2023-07-13T10:34:04;2.15;;;1.23;;
72864;SDS011;61000;48.120;11.548;2023-07-13T10:36:33;2.08;;;1.40;;
72864;SDS011;61000;48.120;11.548;2023-07-13T10:39:04;2.70;;;1.40;;
72864;SDS011;61000;48.120;11.548;2023-07-13T10:41:35;2.97;;;1.23;;
72864;SDS011;61000;48.120;11.548;2023-07-13T10:44:06;2.08;;;1.27;;
72864;SDS011;61000;48.120;11.548;2023-07-13T10:46:41;3.38;;;1.40;;
72864;SDS011;61000;48.120;11.548;2023-07-13T10:49:11;3.47;;;1.20;;
72864;SDS011;61000;48.120;11.548;2023-07-13T10:51:39;2.80;;;1.38;;
72864;SDS011;61000;48.120;11.548;2023-07-13T10:54:17;1.77;;;1.35;;
72864;SDS011;61000;48.120;11.548;2023-07-13T10:56:48;2.38;;;1.58;;
72864;SDS011;61000;48.120;11.548;2023-07-13T10:59:17;4.63;;;1.85;;
72864;SDS011;61000;48.120;11.548;2023-07-13T11:01:49;3.45;;;2.05;;
72864;SDS011;61000;48.120;11.548;2023-07-13T11:04:22;7.10;;;2.20;;
72864;SDS011;61000;48.120;11.548;2023-07-13T11:06:52;3.92;;;1.60;;
72864;SDS011;61000;48.120;11.548;2023-07-13T11:09:33;2.08;;;1.77;;
72864;SDS011;61000;48.120;11.548;2023-07-13T11:12:09;4.30;;;1.70;;
72864;SDS011;61000;48.120;11.548;2023-07-13T11:15:03;3.83;;;1.90;;
72864;SDS011;61000;48.120;11.548;2023-07-13T11:17:36;3.22;;;1.70;;
72864;SDS011;61000;48.120;11.548;2023-07-13T11:20:26;4.50;;;1.98;;
72864;SDS011;61000;48.120;11.548;2023-07-13T11:23:07;5.65;;;1.92;;
72864;SDS011;61000;48.120;11.548;2023-07-13T11:25:46;5.78;;;1.65;;
72864;SDS011;61000;48.120;11.548;2023-07-13T11:28:16;2.53;;;1.85;;
72864;SDS011;61000;48.120;11.548;2023-07-13T11:30:47;6.00;;;1.90;;
72864;SDS011;61000;48.120;11.548;2023-07-13T11:33:17;2.30;;;1.77;;
72864;SDS011;61000;48.120;11.548;2023-07-13T11:35:50;4.38;;;1.80;;
72864;SDS011;61000;48.120;11.548;2023-07-13T11:38:28;6.35;;;2.00;;
72864;SDS011;61000;48.120;11.548;2023-07-13T11:41:00;2.55;;;1.63;;
72864;SDS011;61000;48.120;11.548;2023-07-13T11:43:30;3.03;;;1.70;;
72864;SDS011;61000;48.120;11.548;2023-07-13T11:45:59;3.88;;;1.50;;
72864;SDS011;61000;48.120;11.548;2023-07-13T11:48:39;3.78;;;2.05;;
72864;SDS011;61000;48.120;11.548;2023-07-13T11:51:09;2.40;;;1.33;;
72864;SDS011;61000;48.120;11.548;2023-07-13T11:53:46;8.77;;;1.73;;
72864;SDS011;61000;48.120;11.548;2023-07-13T11:56:15;4.93;;;2.17;;
72864;SDS011;61000;48.120;11.548;2023-07-13T11:58:42;5.00;;;1.70;;
72864;SDS011;61000;48.120;11.548;2023-07-13T12:01:15;3.78;;;1.40;;
72864;SDS011;61000;48.120;11.548;2023-07-13T12:03:45;2.83;;;1.92;;
72864;SDS011;61000;48.120;11.548;2023-07-13T12:06:25;5.20;;;1.88;;
72864;SDS011;61000;48.120;11.548;2023-07-13T12:08:55;3.65;;;1.70;;
72864;SDS011;61000;48.120;11.548;2023-07-13T12:11:24;4.93;;;1.90;;
72864;SDS011;61000;48.120;11.548;2023-07-13T12:13:51;7.43;;;1.55;;
72864;SDS011;61000;48.120;11.548;2023-07-13T12:16:21;1.35;;;1.25;;
72864;SDS011;61000;48.120;11.548;2023-07-13T12:18:52;2.50;;;1.60;;
72864;SDS011;61000;48.120;11.548;2023-07-13T12:21:22;2.90;;;1.50;;
72864;SDS011;61000;48.120;11.548;2023-07-13T12:23:54;14.68;;;2.30;;
72864;SDS011;61000;48.120;11.548;2023-07-13T12:26:21;4.32;;;1.70;;
72864;SDS011;61000;48.120;11.548;2023-07-13T12:28:49;1.98;;;1.38;;
72864;SDS011;61000;48.120;11.548;2023-07-13T12:34:08;3.65;;;1.48;;
72864;SDS011;61000;48.120;11.548;2023-07-13T12:36:40;6.00;;;2.08;;
72864;SDS011;61000;48.120;11.548;2023-07-13T12:39:12;2.85;;;1.75;;
72864;SDS011;61000;48.120;11.548;2023-07-13T12:41:41;2.72;;;1.65;;
72864;SDS011;61000;48.120;11.548;2023-07-13T12:44:13;4.65;;;1.85;;
72864;SDS011;61000;48.120;11.548;2023-07-13T12:46:50;6.53;;;2.00;;
72864;SDS011;61000;48.120;11.548;2023-07-13T12:49:22;6.65;;;1.70;;
72864;SDS011;61000;48.120;11.548;2023-07-13T12:51:55;7.25;;;1.90;;
72864;SDS011;61000;48.120;11.548;2023-07-13T12:54:24;5.25;;;1.75;;
72864;SDS011;61000;48.120;11.548;2023-07-13T12:56:52;4.05;;;1.55;;
72864;SDS011;61000;48.120;11.548;2023-07-13T12:59:22;3.75;;;1.80;;
72864;SDS011;61000;48.120;11.548;2023-07-13T13:01:51;3.55;;;1.83;;
72864;SDS011;61000;48.120;11.548;2023-07-13T13:04:19;3.15;;;1.60;;
72864;SDS011;61000;48.120;11.548;2023-07-13T13:06:48;3.50;;;1.70;;
72864;SDS011;61000;48.120;11.548;2023-07-13T13:09:17;4.05;;;1.80;;
72864;SDS011;61000;48.120;11.548;2023-07-13T13:11:45;5.78;;;1.60;;
72864;SDS011;61000;48.120;11.548;2023-07-13T13:14:12;5.75;;;1.67;;
72864;SDS011;61000;48.120;11.548;2023-07-13T13:16:43;4.53;;;2.03;;
72864;SDS011;61000;48.120;11.548;2023-07-13T13:19:15;4.15;;;1.58;;
72864;SDS011;61000;48.120;11.548;2023-07-13T13:21:43;4.22;;;2.22;;
72864;SDS011;61000;48.120;11.548;2023-07-13T13:24:12;2.50;;;1.50;;
72864;SDS011;61000;48.120;11.548;2023-07-13T13:26:42;3.55;;;1.30;;
72864;SDS011;61000;48.120;11.548;2023-07-13T13:29:11;3.67;;;1.42;;
72864;SDS011;61000;48.120;11.548;2023-07-13T13:31:40;4.05;;;1.48;;
72864;SDS011;61000;48.120;11.548;2023-07-13T13:34:08;3.97;;;1.50;;
72864;SDS011;61000;48.120;11.548;2023-07-13T13:36:36;3.80;;;1.92;;
72864;SDS011;61000;48.120;11.548;2023-07-13T13:39:05;3.03;;;1.65;;
72864;SDS011;61000;48.120;11.548;2023-07-13T13:41:43;2.10;;;1.60;;
72864;SDS011;61000;48.120;11.548;2023-07-13T13:44:10;2.88;;;1.52;;
72864;SDS011;61000;48.120;11.548;2023-07-13T13:46:43;3.05;;;1.60;;
72864;SDS011;61000;48.120;11.548;2023-07-13T13:49:13;3.92;;;1.50;;
72864;SDS011;61000;48.120;11.548;2023-07-13T13:51:42;1.85;;;1.23;;
72864;SDS011;61000;48.120;11.548;2023-07-13T13:54:10;6.07;;;1.73;;
72864;SDS011;61000;48.120;11.548;2023-07-13T13:56:40;3.17;;;1.70;;
72864;SDS011;61000;48.120;11.548;2023-07-13T13:59:09;2.97;;;1.58;;
72864;SDS011;61000;48.120;11.548;2023-07-13T14:01:36;1.55;;;1.25;;
72864;SDS011;61000;48.120;11.548;2023-07-13T14:04:04;4.57;;;1.40;;
72864;SDS011;61000;48.120;11.548;2023-07-13T14:06:33;8.43;;;1.83;;
72864;SDS011;61000;48.120;11.548;2023-07-13T14:09:00;2.55;;;1.42;;
72864;SDS011;61000;48.120;11.548;2023-07-13T14:11:29;3.63;;;1.50;;
72864;SDS011;61000;48.120;11.548;2023-07-13T14:13:59;2.42;;;1.58;;
72864;SDS011;61000;48.120;11.548;2023-07-13T14:16:29;2.50;;;1.63;;
72864;SDS011;61000;48.120;11.548;2023-07-13T14:18:58;4.72;;;1.48;;
72864;SDS011;61000;48.120;11.548;2023-07-13T14:21:26;4.60;;;1.95;;
72864;SDS011;61000;48.120;11.548;2023-07-13T14:23:54;2.08;;;1.40;;
72864;SDS011;61000;48.120;11.548;2023-07-13T14:26:22;1.92;;;1.30;;
72864;SDS011;61000;48.120;11.548;2023-07-13T14:28:50;1.95;;;1.23;;
72864;SDS011;61000;48.120;11.548;2023-07-13T14:31:21;3.00;;;1.45;;
72864;SDS011;61000;48.120;11.548;2023-07-13T14:33:49;2.80;;;2.10;;
72864;SDS011;61000;48.120;11.548;2023-07-13T14:36:21;7.30;;;2.10;;
72864;SDS011;61000;48.120;11.548;2023-07-13T14:38:53;2.70;;;1.73;;
72864;SDS011;61000;48.120;11.548;2023-07-13T14:41:20;3.55;;;1.40;;
72864;SDS011;61000;48.120;11.548;2023-07-13T14:43:47;3.83;;;1.48;;
72864;SDS011;61000;48.120;11.548;2023-07-13T14:46:18;4.22;;;1.60;;
72864;SDS011;61000;48.120;11.548;2023-07-13T14:48:57;3.00;;;1.83;;